VOML/IXE METAR and TAF weather

Enter ICAO airport designator
Station Type Date Time Source
VOML METAR 2019/10/23 02:00 UTC NOAA

VOML 230200Z 08006KT 3000 -RA FEW003 SCT012 BKN080 24/23 Q1010 BECOMG 4000 BR


Station Type Date Time Source
VOML Decoded METAR 2019/10/23 02:00 UTC NOAA

Mangalore / Bajpe, India (VOML) 12-55N 074-53E 102M
Oct 22, 2019 - 10:00 PM EDT / 2019.10.23 0200 UTC
Wind: from the E (080 degrees) at 7 MPH (6 KT):0
Visibility: 1 mile(s):0
Sky conditions: mostly cloudy
Weather: light rain
Temperature: 75 F (24 C)
Dew Point: 73 F (23 C)
Relative Humidity: 94%
Pressure (altimeter): 29.83 in. Hg (1010 hPa)
ob: VOML 230200Z 08006KT 3000 -RA FEW003 SCT012 BKN080 24/23 Q1010 BECOMG 4000 BR
cycle: 2

Station Type Date Time Source
VOML TAF 2019/10/22 18:00 UTC NOAA

TAF VOML 221700Z 2218/2324 11005KT 6000 SCT012 SCT080
TEMPO 2222/2303 3000 DZ BR SCT006 SCT012
BECMG 2305/2306 23010KT
TEMPO 2309/2315 4000 RA DZ SCT008 SCT012 FEW025CB BKN080
BECMG 2314/2315 11005KT

Example: see airport list